createdAt,value
2023-04-22T00:00:37.106Z,8.23
2023-04-22T00:03:06.059Z,8.06
2023-04-22T00:05:35.099Z,8.04
2023-04-22T00:08:04.524Z,7.58
2023-04-22T00:10:33.410Z,8.08
2023-04-22T00:13:02.179Z,8.10
2023-04-22T00:15:31.174Z,8.10
2023-04-22T00:18:00.553Z,8.01
2023-04-22T00:20:29.621Z,8.00
2023-04-22T00:23:00.150Z,8.08
2023-04-22T00:25:28.817Z,8.10
2023-04-22T00:27:57.535Z,8.02
2023-04-22T00:30:26.340Z,8.04
2023-04-22T00:32:55.318Z,8.15
2023-04-22T00:35:24.323Z,8.15
2023-04-22T00:37:53.139Z,7.99
2023-04-22T00:40:22.276Z,7.93
2023-04-22T00:42:52.008Z,7.86
2023-04-22T00:45:24.720Z,7.86
2023-04-22T00:47:54.432Z,7.90
2023-04-22T00:50:23.280Z,7.85
2023-04-22T00:52:52.157Z,7.84
2023-04-22T00:55:21.216Z,7.82
2023-04-22T00:57:52.450Z,7.78
2023-04-22T01:00:23.612Z,7.71
2023-04-22T01:02:52.509Z,7.63
2023-04-22T01:05:21.794Z,7.59
2023-04-22T01:07:51.178Z,7.38
2023-04-22T01:10:20.736Z,7.46
2023-04-22T01:12:49.356Z,7.54
2023-04-22T01:15:18.118Z,7.45
2023-04-22T01:17:47.465Z,7.35
2023-04-22T01:20:17.006Z,7.34
2023-04-22T01:22:47.758Z,7.38
2023-04-22T01:25:16.536Z,7.30
2023-04-22T01:27:45.321Z,7.39
2023-04-22T01:30:14.442Z,7.35
2023-04-22T01:32:43.992Z,7.36
2023-04-22T01:35:12.709Z,7.40
2023-04-22T01:37:41.486Z,7.36
2023-04-22T01:40:11.576Z,7.40
2023-04-22T01:42:40.737Z,7.47
2023-04-22T01:45:10.088Z,7.69
2023-04-22T01:47:38.818Z,7.66
2023-04-22T01:50:08.531Z,7.74
2023-04-22T01:52:37.656Z,7.68
2023-04-22T01:55:07.255Z,7.65
2023-04-22T01:57:36.052Z,7.75
2023-04-22T02:00:05.692Z,7.86
2023-04-22T02:02:34.527Z,7.84
2023-04-22T02:05:03.366Z,7.79
2023-04-22T02:07:32.104Z,7.88
2023-04-22T02:10:04.798Z,7.94
2023-04-22T02:12:33.894Z,7.97
2023-04-22T02:15:02.600Z,8.03
2023-04-22T02:17:31.223Z,8.10
2023-04-22T02:20:00.228Z,8.01
2023-04-22T02:22:29.727Z,8.10
2023-04-22T02:24:58.333Z,8.15
2023-04-22T02:27:27.042Z,8.16
2023-04-22T02:29:55.796Z,8.17
2023-04-22T02:32:24.510Z,8.17
2023-04-22T02:34:53.202Z,8.15
2023-04-22T02:37:23.043Z,8.14
2023-04-22T02:39:51.815Z,8.10
2023-04-22T02:42:20.464Z,8.06
2023-04-22T02:44:49.095Z,8.20
2023-04-22T02:47:18.577Z,8.15
2023-04-22T02:49:47.302Z,8.18
2023-04-22T02:52:18.226Z,8.04
2023-04-22T02:54:46.960Z,8.08
2023-04-22T02:57:15.632Z,8.21
2023-04-22T02:59:44.477Z,8.19
2023-04-22T03:02:16.374Z,8.23
2023-04-22T03:04:45.196Z,8.08
2023-04-22T03:07:16.896Z,7.93
2023-04-22T03:09:45.590Z,7.87
2023-04-22T03:12:15.782Z,7.70
2023-04-22T03:14:44.418Z,7.62
2023-04-22T03:17:13.146Z,7.62
2023-04-22T03:19:42.168Z,7.48
2023-04-22T03:22:11.319Z,7.40
2023-04-22T03:24:40.417Z,7.41
2023-04-22T03:27:10.742Z,7.40
2023-04-22T03:29:39.598Z,7.38
2023-04-22T03:32:08.562Z,7.30
2023-04-22T03:34:37.529Z,7.34
2023-04-22T03:37:06.485Z,7.23
2023-04-22T03:39:35.349Z,7.26
2023-04-22T03:42:04.192Z,7.33
2023-04-22T03:44:32.921Z,7.27
2023-04-22T03:47:01.576Z,7.17
2023-04-22T03:49:30.783Z,7.55
2023-04-22T03:51:59.541Z,7.57
2023-04-22T03:54:28.681Z,7.68
2023-04-22T03:56:58.067Z,7.56
2023-04-22T03:59:27.081Z,7.54
2023-04-22T04:01:56.036Z,7.58
2023-04-22T04:04:25.449Z,7.59
2023-04-22T04:06:54.415Z,7.72
2023-04-22T04:09:23.076Z,7.76
2023-04-22T04:11:51.837Z,7.80
2023-04-22T04:14:20.720Z,7.88
2023-04-22T04:16:49.561Z,7.98
2023-04-22T04:19:18.315Z,7.91
2023-04-22T04:21:47.097Z,7.99
2023-04-22T04:24:15.862Z,7.91
2023-04-22T04:26:44.534Z,7.99
2023-04-22T04:29:13.825Z,8.01
2023-04-22T04:31:42.913Z,8.04
2023-04-22T04:34:11.884Z,8.09
2023-04-22T04:36:40.805Z,8.18
2023-04-22T04:39:12.593Z,8.18
2023-04-22T04:41:41.330Z,8.20
2023-04-22T04:44:12.320Z,8.25
2023-04-22T04:46:41.403Z,8.19
2023-04-22T04:49:11.944Z,8.18
2023-04-22T04:51:40.827Z,8.10
2023-04-22T04:54:09.617Z,8.13
2023-04-22T04:56:38.416Z,8.07
2023-04-22T04:59:07.127Z,8.17
2023-04-22T05:01:36.364Z,8.25
2023-04-22T05:04:05.501Z,8.37
2023-04-22T05:06:34.448Z,8.52
2023-04-22T05:09:03.204Z,8.71
2023-04-22T05:11:32.101Z,8.81
2023-04-22T05:14:01.172Z,8.96
2023-04-22T05:16:30.281Z,8.95
2023-04-22T05:18:59.078Z,9.17
2023-04-22T05:21:27.819Z,9.20
2023-04-22T05:23:56.592Z,9.39
2023-04-22T05:26:25.309Z,9.40
2023-04-22T05:28:54.072Z,9.48
2023-04-22T05:31:22.970Z,9.45
2023-04-22T05:33:51.722Z,9.59
2023-04-22T05:36:22.271Z,9.79
2023-04-22T05:38:51.026Z,9.70
2023-04-22T05:41:19.664Z,9.60
2023-04-22T05:44:00.714Z,9.60
2023-04-22T05:46:32.478Z,9.53
2023-04-22T05:49:01.439Z,9.77
2023-04-22T05:51:33.073Z,10.18
2023-04-22T05:54:01.857Z,10.19
2023-04-22T05:56:30.905Z,10.52
2023-04-22T05:58:59.692Z,10.60
2023-04-22T06:01:28.492Z,10.73
2023-04-22T06:04:01.844Z,10.48
2023-04-22T06:06:36.235Z,10.54
2023-04-22T06:09:05.040Z,10.68
2023-04-22T06:11:34.354Z,10.86
2023-04-22T06:14:03.083Z,11.13
2023-04-22T06:16:32.017Z,11.15
2023-04-22T06:19:01.067Z,11.01
2023-04-22T06:21:29.683Z,11.28
2023-04-22T06:24:00.121Z,11.52
2023-04-22T06:26:28.970Z,11.34
2023-04-22T06:29:03.204Z,11.58
2023-04-22T06:31:32.653Z,11.66
2023-04-22T06:34:01.339Z,11.57
2023-04-22T06:36:32.208Z,11.41
2023-04-22T06:39:02.411Z,11.16
2023-04-22T06:41:33.329Z,11.40
2023-04-22T06:44:02.129Z,11.51
2023-04-22T06:46:37.073Z,11.60
2023-04-22T06:49:03.976Z,11.86
2023-04-22T06:51:32.704Z,11.93
2023-04-22T06:54:01.402Z,12.04
2023-04-22T06:56:30.281Z,12.19
2023-04-22T06:58:59.066Z,12.31
2023-04-22T07:01:27.865Z,12.60
2023-04-22T07:03:56.862Z,12.70
2023-04-22T07:06:25.984Z,12.92
2023-04-22T07:08:56.445Z,12.98
2023-04-22T07:11:26.432Z,13.03
2023-04-22T07:13:55.162Z,13.18
2023-04-22T07:16:23.957Z,13.34
2023-04-22T07:18:58.549Z,13.16
2023-04-22T07:21:29.050Z,13.31
2023-04-22T07:24:05.471Z,13.49
2023-04-22T07:26:37.023Z,13.61
2023-04-22T07:29:07.824Z,13.63
2023-04-22T07:31:41.244Z,13.47
2023-04-22T07:36:18.795Z,13.74
2023-04-22T07:36:49.000Z,13.61
2023-04-22T07:39:17.704Z,13.58
2023-04-22T07:41:50.950Z,13.83
2023-04-22T07:44:21.977Z,14.16
2023-04-22T07:46:52.406Z,14.35
2023-04-22T07:49:22.112Z,14.56
2023-04-22T07:51:52.150Z,14.76
2023-04-22T07:54:21.078Z,14.58
2023-04-22T07:56:51.828Z,14.63
2023-04-22T07:59:20.201Z,14.45
2023-04-22T08:01:49.195Z,14.88
2023-04-22T08:04:18.743Z,14.24
2023-04-22T08:06:50.566Z,14.12
2023-04-22T08:09:19.233Z,14.24
2023-04-22T08:11:50.711Z,14.09
2023-04-22T08:14:19.601Z,14.44
2023-04-22T08:16:48.310Z,14.79
2023-04-22T08:19:17.137Z,15.00
2023-04-22T08:21:45.960Z,15.07
2023-04-22T08:24:14.979Z,15.18
2023-04-22T08:26:43.766Z,15.44
2023-04-22T08:29:12.556Z,15.57
2023-04-22T08:31:47.178Z,15.42
2023-04-22T08:34:16.270Z,15.37
2023-04-22T08:36:45.041Z,15.49
2023-04-22T08:39:21.141Z,15.25
2023-04-22T08:41:51.469Z,15.35
2023-04-22T08:44:21.660Z,15.55
2023-04-22T08:46:54.658Z,16.04
2023-04-22T08:49:25.915Z,16.16
2023-04-22T08:51:56.225Z,16.20
2023-04-22T08:54:28.116Z,16.27
2023-04-22T08:57:16.731Z,15.74
2023-04-22T08:59:47.818Z,16.12
2023-04-22T09:02:25.472Z,16.49
2023-04-22T09:04:54.840Z,16.87
2023-04-22T09:07:31.899Z,16.93
2023-04-22T09:10:06.472Z,17.14
2023-04-22T09:12:36.838Z,16.87
2023-04-22T09:18:43.164Z,16.97
2023-04-22T09:21:40.587Z,17.10
2023-04-22T09:24:00.300Z,16.35
2023-04-22T09:26:35.265Z,16.51
2023-04-22T09:29:05.677Z,16.67
2023-04-22T09:35:23.814Z,17.64
2023-04-22T09:37:56.786Z,16.91
2023-04-22T09:40:36.594Z,17.53
2023-04-22T09:43:08.036Z,18.25
2023-04-22T09:45:39.161Z,17.90
2023-04-22T09:48:22.966Z,17.90
2023-04-22T09:50:53.124Z,17.80
2023-04-22T09:53:22.810Z,17.36
2023-04-22T09:56:15.525Z,17.20
2023-04-22T09:58:49.401Z,16.85
2023-04-22T10:08:02.658Z,17.01
2023-04-22T10:10:31.824Z,16.61
2023-04-22T10:13:01.470Z,16.86
2023-04-22T10:15:35.673Z,17.21
2023-04-22T10:18:21.600Z,17.33
2023-04-22T10:20:51.652Z,17.18
2023-04-22T10:23:22.338Z,17.18
2023-04-22T10:25:53.814Z,16.57
2023-04-22T10:28:24.059Z,16.51
2023-04-22T10:30:56.075Z,16.56
2023-04-22T10:33:29.071Z,17.14
2023-04-22T10:36:18.197Z,17.28
2023-04-22T10:38:53.724Z,17.75
2023-04-22T10:41:29.850Z,18.00
2023-04-22T10:44:10.971Z,18.21
2023-04-22T10:46:54.073Z,18.09
2023-04-22T10:49:25.294Z,18.04
2023-04-22T10:51:56.474Z,18.07
2023-04-22T10:54:35.414Z,17.70
2023-04-22T10:57:07.184Z,18.09
2023-04-22T10:59:38.912Z,18.09
2023-04-22T11:02:08.869Z,18.15
2023-04-22T11:04:39.555Z,17.70
2023-04-22T11:07:24.898Z,17.65
2023-04-22T11:10:12.797Z,17.61
2023-04-22T11:12:43.416Z,17.50
2023-04-22T11:15:21.620Z,17.27
2023-04-22T11:17:52.871Z,16.99
2023-04-22T11:20:21.937Z,16.86
2023-04-22T11:22:54.034Z,16.93
2023-04-22T11:25:24.176Z,16.55
2023-04-22T11:27:55.160Z,16.53
2023-04-22T11:30:26.415Z,16.43
2023-04-22T11:32:59.067Z,16.17
2023-04-22T11:35:33.138Z,16.46
2023-04-22T11:38:08.838Z,16.41
2023-04-22T11:40:43.931Z,16.59
2023-04-22T11:43:15.405Z,16.66
2023-04-22T11:45:46.986Z,16.52
2023-04-22T11:48:18.356Z,16.34
2023-04-22T11:50:48.219Z,16.42
2023-04-22T11:53:23.405Z,16.71
2023-04-22T11:55:53.474Z,16.48
2023-04-22T11:58:28.212Z,16.39
2023-04-22T12:01:08.816Z,16.34
2023-04-22T12:03:38.184Z,16.30
2023-04-22T12:06:07.710Z,15.88
2023-04-22T12:08:42.597Z,16.13
2023-04-22T12:11:15.736Z,16.21
2023-04-22T12:13:50.560Z,16.30
2023-04-22T12:16:20.599Z,16.40
2023-04-22T12:18:58.998Z,16.18
2023-04-22T12:21:32.874Z,16.20
2023-04-22T12:24:11.600Z,16.26
2023-04-22T12:26:44.957Z,16.35
2023-04-22T12:29:16.096Z,16.39
2023-04-22T12:31:46.307Z,16.29
2023-04-22T12:34:18.356Z,15.94
2023-04-22T12:36:47.059Z,15.68
2023-04-22T12:39:15.823Z,15.97
2023-04-22T12:41:44.645Z,16.06
2023-04-22T12:44:15.810Z,16.10
2023-04-22T12:46:44.633Z,16.28
2023-04-22T12:49:14.828Z,16.58
2023-04-22T12:51:43.573Z,16.20
2023-04-22T12:54:12.288Z,16.09
2023-04-22T12:56:41.037Z,15.71
2023-04-22T12:59:09.692Z,15.74
2023-04-22T13:01:38.482Z,15.54
2023-04-22T13:04:12.997Z,15.93
2023-04-22T13:06:50.777Z,15.98
2023-04-22T13:09:19.534Z,15.99
2023-04-22T13:11:53.840Z,16.08
2023-04-22T13:14:22.879Z,16.10
2023-04-22T13:16:59.128Z,16.12
2023-04-22T13:19:29.653Z,16.24
2023-04-22T13:21:58.390Z,15.89
2023-04-22T13:24:27.249Z,15.95
2023-04-22T13:26:57.616Z,16.26
2023-04-22T13:29:27.239Z,16.39
2023-04-22T13:31:56.153Z,16.38
2023-04-22T13:34:25.196Z,16.53
2023-04-22T13:36:54.037Z,16.66
2023-04-22T13:39:23.550Z,16.64
2023-04-22T13:41:52.548Z,16.82
2023-04-22T13:44:21.462Z,16.83
2023-04-22T13:46:50.211Z,17.00
2023-04-22T13:49:21.752Z,16.93
2023-04-22T13:51:51.961Z,16.88
2023-04-22T13:54:20.966Z,16.53
2023-04-22T13:56:49.826Z,16.65
2023-04-22T13:59:18.482Z,17.07
2023-04-22T14:05:49.529Z,16.89
2023-04-22T14:08:18.347Z,16.88
2023-04-22T14:10:47.261Z,16.53
2023-04-22T14:13:16.143Z,16.54
2023-04-22T14:15:44.940Z,16.71
2023-04-22T14:18:13.772Z,16.92
2023-04-22T14:20:43.303Z,17.00
2023-04-22T14:23:12.493Z,17.42
2023-04-22T14:25:41.245Z,17.38
2023-04-22T14:28:09.862Z,17.34
2023-04-22T14:30:38.953Z,17.31
2023-04-22T14:33:07.760Z,17.30
2023-04-22T14:35:41.017Z,17.21
2023-04-22T14:38:11.819Z,17.76
2023-04-22T14:40:40.779Z,18.50
2023-04-22T14:43:09.843Z,18.56
2023-04-22T14:45:38.627Z,18.45
2023-04-22T14:48:07.443Z,19.62
2023-04-22T14:50:37.474Z,20.58
2023-04-22T14:53:06.514Z,20.47
2023-04-22T14:55:36.274Z,21.12
2023-04-22T14:58:06.643Z,21.34
2023-04-22T15:00:38.310Z,22.58
2023-04-22T15:03:07.230Z,22.58
2023-04-22T15:05:36.393Z,21.10
2023-04-22T15:08:07.715Z,21.44
2023-04-22T15:10:40.599Z,20.95
2023-04-22T15:13:12.136Z,20.19
2023-04-22T15:15:42.455Z,20.13
2023-04-22T15:18:11.775Z,19.79
2023-04-22T15:20:41.209Z,19.23
2023-04-22T15:23:22.661Z,19.06
2023-04-22T15:26:06.406Z,18.46
2023-04-22T15:28:35.873Z,17.86
2023-04-22T15:31:04.689Z,17.67
2023-04-22T15:33:33.348Z,17.51
2023-04-22T15:36:03.749Z,17.74
2023-04-22T15:38:32.464Z,17.58
2023-04-22T15:41:01.153Z,17.50
2023-04-22T15:43:31.132Z,17.20
2023-04-22T15:46:00.216Z,17.49
2023-04-22T15:48:29.150Z,18.13
2023-04-22T15:50:58.071Z,19.20
2023-04-22T15:53:31.834Z,19.11
2023-04-22T15:56:00.735Z,19.34
2023-04-22T15:58:32.433Z,18.96
2023-04-22T16:01:11.532Z,19.56
2023-04-22T16:03:30.975Z,18.23
2023-04-22T16:05:59.974Z,17.55
2023-04-22T16:08:30.461Z,17.05
2023-04-22T16:11:02.016Z,16.68
2023-04-22T16:13:33.609Z,16.41
2023-04-22T16:16:09.353Z,16.12
2023-04-22T16:18:38.649Z,16.04
2023-04-22T16:21:10.714Z,15.76
2023-04-22T16:23:39.368Z,15.75
2023-04-22T16:26:08.212Z,15.69
2023-04-22T16:28:37.013Z,15.67
2023-04-22T16:31:08.193Z,15.70
2023-04-22T16:33:38.663Z,15.49
2023-04-22T16:36:10.920Z,15.37
2023-04-22T16:38:39.658Z,15.25
2023-04-22T16:41:10.145Z,15.13
2023-04-22T16:43:44.826Z,15.01
2023-04-22T16:46:17.990Z,14.91
2023-04-22T16:48:50.848Z,14.70
2023-04-22T16:51:19.618Z,14.49
2023-04-22T16:53:51.395Z,14.41
2023-04-22T16:56:20.459Z,14.34
2023-04-22T16:58:49.147Z,14.29
2023-04-22T17:01:20.844Z,14.21
2023-04-22T17:03:52.802Z,14.19
2023-04-22T17:06:21.912Z,14.18
2023-04-22T17:12:06.929Z,13.49
2023-04-22T17:14:27.232Z,14.00
2023-04-22T17:16:55.947Z,13.91
2023-04-22T17:19:24.976Z,13.83
2023-04-22T17:21:59.676Z,13.69
2023-04-22T17:24:34.909Z,13.59
2023-04-22T17:27:04.684Z,13.47
2023-04-22T17:29:33.605Z,13.40
2023-04-22T17:32:04.052Z,13.43
2023-04-22T17:34:40.935Z,13.36
2023-04-22T17:37:09.726Z,13.26
2023-04-22T17:39:46.376Z,13.18
2023-04-22T17:42:38.895Z,13.06
2023-04-22T17:45:12.382Z,12.94
2023-04-22T17:47:52.630Z,12.87
2023-04-22T17:50:26.449Z,12.72
2023-04-22T17:52:55.463Z,12.78
2023-04-22T17:55:24.360Z,12.63
2023-04-22T18:01:22.700Z,12.53
2023-04-22T18:03:54.880Z,12.43
2023-04-22T18:09:57.876Z,12.30
2023-04-22T18:12:30.308Z,12.20
2023-04-22T18:15:00.367Z,12.16
2023-04-22T18:17:32.178Z,12.17
2023-04-22T18:29:28.851Z,12.07
2023-04-22T18:32:06.936Z,12.08
2023-04-22T18:34:43.660Z,12.10
2023-04-22T18:37:12.569Z,12.00
2023-04-22T18:39:44.522Z,11.97
2023-04-22T18:42:17.449Z,11.95
2023-04-22T18:45:53.481Z,11.97
2023-04-22T18:47:38.946Z,12.01
2023-04-22T18:53:41.048Z,11.95
2023-04-22T19:02:23.829Z,11.74
2023-04-22T19:05:07.526Z,11.71
2023-04-22T19:07:39.634Z,11.66
2023-04-22T19:10:20.111Z,11.68
2023-04-22T19:12:52.141Z,11.62
2023-04-22T19:15:24.941Z,11.13
2023-04-22T19:18:31.458Z,11.55
2023-04-22T19:20:34.187Z,11.50
2023-04-22T19:23:03.049Z,11.38
2023-04-22T19:25:31.817Z,11.34
2023-04-22T19:28:05.442Z,11.20
2023-04-22T19:30:40.157Z,11.13
2023-04-22T19:33:27.334Z,11.03
2023-04-22T19:35:56.269Z,10.95
2023-04-22T19:38:25.152Z,10.90
2023-04-22T19:41:01.455Z,10.85
2023-04-22T19:43:30.327Z,10.84
2023-04-22T19:45:59.173Z,10.87
2023-04-22T19:48:28.142Z,10.84
2023-04-22T19:50:57.509Z,10.82
2023-04-22T19:53:26.741Z,10.78
2023-04-22T19:55:57.169Z,10.75
2023-04-22T19:58:27.537Z,10.68
2023-04-22T20:00:56.740Z,10.64
2023-04-22T20:03:25.716Z,10.60
2023-04-22T20:05:56.195Z,10.52
2023-04-22T20:08:29.987Z,10.56
2023-04-22T20:11:00.696Z,10.52
2023-04-22T20:13:30.104Z,10.44
2023-04-22T20:16:00.913Z,10.38
2023-04-22T20:18:29.731Z,10.33
2023-04-22T20:20:59.095Z,10.25
2023-04-22T20:23:29.003Z,10.23
2023-04-22T20:25:58.554Z,9.93
2023-04-22T20:28:30.258Z,10.15
2023-04-22T20:30:59.109Z,10.14
2023-04-22T20:33:28.251Z,10.10
2023-04-22T20:36:08.572Z,10.13
2023-04-22T20:38:43.398Z,10.07
2023-04-22T20:41:15.599Z,9.97
2023-04-22T20:43:49.103Z,9.93
2023-04-22T20:46:26.165Z,9.89
2023-04-22T20:48:57.860Z,9.85
2023-04-22T20:51:28.354Z,9.81
2023-04-22T20:53:57.821Z,9.72
2023-04-22T20:56:28.301Z,9.66
2023-04-22T20:58:57.158Z,9.68
2023-04-22T21:01:27.538Z,9.59
2023-04-22T21:03:58.539Z,9.51
2023-04-22T21:06:32.222Z,9.52
2023-04-22T21:09:02.009Z,9.38
2023-04-22T21:11:34.970Z,9.34
2023-04-22T21:14:07.223Z,9.37
2023-04-22T21:16:40.706Z,9.37
2023-04-22T21:19:15.341Z,9.30
2023-04-22T21:21:47.123Z,9.25
2023-04-22T21:24:16.563Z,9.27
2023-04-22T21:26:59.422Z,9.18
2023-04-22T21:29:31.770Z,9.17
2023-04-22T21:32:08.905Z,9.08
2023-04-22T21:34:31.556Z,9.11
2023-04-22T21:37:00.425Z,9.13
2023-04-22T21:39:33.033Z,9.17
2023-04-22T21:42:06.834Z,9.16
2023-04-22T21:44:36.580Z,9.10
2023-04-22T21:47:10.479Z,9.07
2023-04-22T21:49:40.793Z,9.03
2023-04-22T21:52:09.747Z,9.05
2023-04-22T21:54:38.523Z,9.03
2023-04-22T21:57:08.447Z,9.03
2023-04-22T21:59:39.973Z,9.01
2023-04-22T22:02:24.896Z,8.94
2023-04-22T22:10:49.151Z,8.98
2023-04-22T22:13:19.617Z,8.89
2023-04-22T22:15:48.571Z,8.85
2023-04-22T22:18:17.267Z,8.83
2023-04-22T22:20:46.222Z,8.77
2023-04-22T22:23:15.113Z,8.76
2023-04-22T22:25:43.838Z,8.76
2023-04-22T22:28:12.528Z,8.75
2023-04-22T22:30:41.363Z,8.63
2023-04-22T22:33:10.114Z,8.69
2023-04-22T22:35:41.337Z,8.76
2023-04-22T22:38:13.162Z,8.64
2023-04-22T22:40:44.960Z,8.59
2023-04-22T22:43:15.345Z,8.72
2023-04-22T22:45:44.568Z,8.60
2023-04-22T22:48:14.853Z,8.55
2023-04-22T22:50:45.968Z,8.60
2023-04-22T22:53:14.631Z,8.47
2023-04-22T22:55:43.244Z,8.48
2023-04-22T22:58:11.915Z,8.54
2023-04-22T23:00:40.714Z,8.47
2023-04-22T23:03:09.725Z,8.38
2023-04-22T23:05:38.797Z,8.33
2023-04-22T23:08:07.511Z,8.35
2023-04-22T23:10:36.246Z,8.39
2023-04-22T23:13:04.999Z,8.37
2023-04-22T23:15:33.731Z,8.29
2023-04-22T23:18:02.564Z,8.35
2023-04-22T23:20:31.521Z,8.28
2023-04-22T23:23:02.742Z,8.30
2023-04-22T23:25:31.753Z,8.19
2023-04-22T23:28:00.846Z,8.16
2023-04-22T23:30:29.966Z,8.13
2023-04-22T23:33:00.473Z,8.09
2023-04-22T23:35:29.557Z,8.15
2023-04-22T23:37:59.784Z,8.08
2023-04-22T23:40:28.498Z,8.06
2023-04-22T23:42:57.203Z,8.26
2023-04-22T23:45:28.503Z,8.22
2023-04-22T23:47:57.222Z,8.17
2023-04-22T23:50:26.145Z,8.15
2023-04-22T23:52:54.821Z,8.05
2023-04-22T23:55:24.147Z,8.22
2023-04-22T23:57:53.098Z,8.21
